sensor_id;sensor_type;location;lat;lon;timestamp;temperature;humidity
29501;DHT22;16450;50.288;10.966;2023-03-21T00:00:56;7.50;99.90
29501;DHT22;16450;50.288;10.966;2023-03-21T00:03:58;7.50;99.90
29501;DHT22;16450;50.288;10.966;2023-03-21T00:07:01;7.40;99.90
29501;DHT22;16450;50.288;10.966;2023-03-21T00:10:03;7.30;99.90
29501;DHT22;16450;50.288;10.966;2023-03-21T00:13:18;7.30;99.90
29501;DHT22;16450;50.288;10.966;2023-03-21T00:16:20;7.30;99.90
29501;DHT22;16450;50.288;10.966;2023-03-21T00:19:31;7.30;99.90
29501;DHT22;16450;50.288;10.966;2023-03-21T00:22:34;7.20;99.90
29501;DHT22;16450;50.288;10.966;2023-03-21T00:25:36;7.20;99.90
29501;DHT22;16450;50.288;10.966;2023-03-21T00:28:40;7.20;99.90
29501;DHT22;16450;50.288;10.966;2023-03-21T00:31:42;7.20;99.90
29501;DHT22;16450;50.288;10.966;2023-03-21T00:34:44;7.20;99.90
29501;DHT22;16450;50.288;10.966;2023-03-21T00:38:05;7.20;99.90
29501;DHT22;16450;50.288;10.966;2023-03-21T00:41:10;7.20;99.90
29501;DHT22;16450;50.288;10.966;2023-03-21T00:44:26;7.20;99.90
29501;DHT22;16450;50.288;10.966;2023-03-21T00:47:28;7.20;99.90
29501;DHT22;16450;50.288;10.966;2023-03-21T00:50:30;7.30;99.90
29501;DHT22;16450;50.288;10.966;2023-03-21T00:53:33;7.20;99.90
29501;DHT22;16450;50.288;10.966;2023-03-21T00:56:34;7.30;99.90
29501;DHT22;16450;50.288;10.966;2023-03-21T00:59:37;7.30;99.90
29501;DHT22;16450;50.288;10.966;2023-03-21T01:02:40;7.30;99.90
29501;DHT22;16450;50.288;10.966;2023-03-21T01:06:05;7.30;99.90
29501;DHT22;16450;50.288;10.966;2023-03-21T01:09:14;7.30;99.90
29501;DHT22;16450;50.288;10.966;2023-03-21T01:12:17;7.30;99.90
29501;DHT22;16450;50.288;10.966;2023-03-21T01:15:19;7.30;99.90
29501;DHT22;16450;50.288;10.966;2023-03-21T01:18:25;7.30;99.90
29501;DHT22;16450;50.288;10.966;2023-03-21T01:21:27;7.30;99.90
29501;DHT22;16450;50.288;10.966;2023-03-21T01:24:30;7.30;99.90
29501;DHT22;16450;50.288;10.966;2023-03-21T01:27:34;7.30;99.90
29501;DHT22;16450;50.288;10.966;2023-03-21T01:30:36;7.30;99.90
29501;DHT22;16450;50.288;10.966;2023-03-21T01:33:43;7.30;99.90
29501;DHT22;16450;50.288;10.966;2023-03-21T01:36:45;7.20;99.90
29501;DHT22;16450;50.288;10.966;2023-03-21T01:39:47;7.30;99.90
29501;DHT22;16450;50.288;10.966;2023-03-21T01:42:49;7.20;99.90
29501;DHT22;16450;50.288;10.966;2023-03-21T01:49:47;7.30;99.90
29501;DHT22;16450;50.288;10.966;2023-03-21T01:52:50;7.30;99.90
29501;DHT22;16450;50.288;10.966;2023-03-21T01:55:52;7.30;99.90
29501;DHT22;16450;50.288;10.966;2023-03-21T01:59:00;7.20;99.90
29501;DHT22;16450;50.288;10.966;2023-03-21T02:02:06;7.30;99.90
29501;DHT22;16450;50.288;10.966;2023-03-21T02:05:11;7.30;99.90
29501;DHT22;16450;50.288;10.966;2023-03-21T02:08:13;7.30;99.90
29501;DHT22;16450;50.288;10.966;2023-03-21T02:11:17;7.30;99.90
29501;DHT22;16450;50.288;10.966;2023-03-21T02:14:19;7.30;99.90
29501;DHT22;16450;50.288;10.966;2023-03-21T02:17:55;7.30;99.90
29501;DHT22;16450;50.288;10.966;2023-03-21T02:21:21;7.20;99.90
29501;DHT22;16450;50.288;10.966;2023-03-21T02:27:44;7.30;99.90
29501;DHT22;16450;50.288;10.966;2023-03-21T02:47:50;7.20;99.90
29501;DHT22;16450;50.288;10.966;2023-03-21T02:50:56;7.30;99.90
29501;DHT22;16450;50.288;10.966;2023-03-21T02:54:06;7.20;99.90
29501;DHT22;16450;50.288;10.966;2023-03-21T02:57:29;7.10;99.90
29501;DHT22;16450;50.288;10.966;2023-03-21T03:00:44;7.10;99.90
29501;DHT22;16450;50.288;10.966;2023-03-21T03:03:46;7.00;99.90
29501;DHT22;16450;50.288;10.966;2023-03-21T03:07:12;7.00;99.90
29501;DHT22;16450;50.288;10.966;2023-03-21T03:13:36;7.00;99.90
29501;DHT22;16450;50.288;10.966;2023-03-21T03:23:27;7.00;99.90
29501;DHT22;16450;50.288;10.966;2023-03-21T03:26:40;6.90;99.90
29501;DHT22;16450;50.288;10.966;2023-03-21T03:29:47;7.00;99.90
29501;DHT22;16450;50.288;10.966;2023-03-21T03:32:53;6.90;99.90
29501;DHT22;16450;50.288;10.966;2023-03-21T03:35:58;6.90;99.90
29501;DHT22;16450;50.288;10.966;2023-03-21T03:39:11;6.90;99.90
29501;DHT22;16450;50.288;10.966;2023-03-21T03:42:35;6.90;99.90
29501;DHT22;16450;50.288;10.966;2023-03-21T03:45:43;6.90;99.90
29501;DHT22;16450;50.288;10.966;2023-03-21T03:48:53;6.90;99.90
29501;DHT22;16450;50.288;10.966;2023-03-21T03:52:06;6.90;99.90
29501;DHT22;16450;50.288;10.966;2023-03-21T03:55:11;6.90;99.90
29501;DHT22;16450;50.288;10.966;2023-03-21T03:58:17;6.90;99.90
29501;DHT22;16450;50.288;10.966;2023-03-21T04:01:26;6.90;99.90
29501;DHT22;16450;50.288;10.966;2023-03-21T04:04:28;6.90;99.90
29501;DHT22;16450;50.288;10.966;2023-03-21T04:07:32;6.90;99.90
29501;DHT22;16450;50.288;10.966;2023-03-21T04:10:34;6.80;99.90
29501;DHT22;16450;50.288;10.966;2023-03-21T04:13:37;6.80;99.90
29501;DHT22;16450;50.288;10.966;2023-03-21T04:16:39;6.80;99.90
29501;DHT22;16450;50.288;10.966;2023-03-21T04:19:41;6.80;99.90
29501;DHT22;16450;50.288;10.966;2023-03-21T04:22:43;6.80;99.90
29501;DHT22;16450;50.288;10.966;2023-03-21T04:25:45;6.80;99.90
29501;DHT22;16450;50.288;10.966;2023-03-21T04:28:58;6.80;99.90
29501;DHT22;16450;50.288;10.966;2023-03-21T04:32:03;6.80;99.90
29501;DHT22;16450;50.288;10.966;2023-03-21T04:35:07;6.80;99.90
29501;DHT22;16450;50.288;10.966;2023-03-21T04:38:10;6.80;99.90
29501;DHT22;16450;50.288;10.966;2023-03-21T04:41:12;6.70;99.90
29501;DHT22;16450;50.288;10.966;2023-03-21T04:44:15;6.70;99.90
29501;DHT22;16450;50.288;10.966;2023-03-21T04:47:17;6.70;99.90
29501;DHT22;16450;50.288;10.966;2023-03-21T04:50:21;6.70;99.90
29501;DHT22;16450;50.288;10.966;2023-03-21T04:53:23;6.70;99.90
29501;DHT22;16450;50.288;10.966;2023-03-21T04:56:29;6.70;99.90
29501;DHT22;16450;50.288;10.966;2023-03-21T04:59:35;6.70;99.90
29501;DHT22;16450;50.288;10.966;2023-03-21T05:02:37;6.80;99.90
29501;DHT22;16450;50.288;10.966;2023-03-21T05:05:39;6.70;99.90
29501;DHT22;16450;50.288;10.966;2023-03-21T05:08:41;6.60;99.90
29501;DHT22;16450;50.288;10.966;2023-03-21T05:11:43;6.60;99.90
29501;DHT22;16450;50.288;10.966;2023-03-21T05:14:45;6.70;99.90
29501;DHT22;16450;50.288;10.966;2023-03-21T05:17:47;6.70;99.90
29501;DHT22;16450;50.288;10.966;2023-03-21T05:20:51;6.60;99.90
29501;DHT22;16450;50.288;10.966;2023-03-21T05:23:56;6.60;99.90
29501;DHT22;16450;50.288;10.966;2023-03-21T05:27:00;6.60;99.90
29501;DHT22;16450;50.288;10.966;2023-03-21T05:30:05;6.60;99.90
29501;DHT22;16450;50.288;10.966;2023-03-21T05:33:08;6.60;99.90
29501;DHT22;16450;50.288;10.966;2023-03-21T05:36:10;6.60;99.90
29501;DHT22;16450;50.288;10.966;2023-03-21T05:39:12;6.70;99.90
29501;DHT22;16450;50.288;10.966;2023-03-21T05:42:14;6.60;99.90
29501;DHT22;16450;50.288;10.966;2023-03-21T05:45:17;6.70;99.90
29501;DHT22;16450;50.288;10.966;2023-03-21T05:48:18;6.70;99.90
29501;DHT22;16450;50.288;10.966;2023-03-21T05:51:20;6.70;99.90
29501;DHT22;16450;50.288;10.966;2023-03-21T05:54:23;6.60;99.90
29501;DHT22;16450;50.288;10.966;2023-03-21T05:57:25;6.70;99.90
29501;DHT22;16450;50.288;10.966;2023-03-21T06:00:29;6.70;99.90
29501;DHT22;16450;50.288;10.966;2023-03-21T06:03:31;6.80;99.90
29501;DHT22;16450;50.288;10.966;2023-03-21T06:06:33;6.80;99.90
29501;DHT22;16450;50.288;10.966;2023-03-21T06:09:34;6.80;99.90
29501;DHT22;16450;50.288;10.966;2023-03-21T06:12:36;6.80;99.90
29501;DHT22;16450;50.288;10.966;2023-03-21T06:15:38;6.80;99.90
29501;DHT22;16450;50.288;10.966;2023-03-21T06:18:41;6.90;99.90
29501;DHT22;16450;50.288;10.966;2023-03-21T06:21:42;6.90;99.90
29501;DHT22;16450;50.288;10.966;2023-03-21T06:24:44;7.00;99.90
29501;DHT22;16450;50.288;10.966;2023-03-21T06:27:46;7.00;99.90
29501;DHT22;16450;50.288;10.966;2023-03-21T06:30:48;7.10;99.90
29501;DHT22;16450;50.288;10.966;2023-03-21T06:33:50;7.10;99.90
29501;DHT22;16450;50.288;10.966;2023-03-21T06:36:52;7.10;99.90
29501;DHT22;16450;50.288;10.966;2023-03-21T06:39:55;7.20;99.90
29501;DHT22;16450;50.288;10.966;2023-03-21T06:42:57;7.30;99.90
29501;DHT22;16450;50.288;10.966;2023-03-21T06:45:59;7.30;99.90
29501;DHT22;16450;50.288;10.966;2023-03-21T06:49:01;7.40;99.90
29501;DHT22;16450;50.288;10.966;2023-03-21T06:52:03;7.50;99.90
29501;DHT22;16450;50.288;10.966;2023-03-21T06:55:05;7.50;99.90
29501;DHT22;16450;50.288;10.966;2023-03-21T06:58:07;7.60;99.90
29501;DHT22;16450;50.288;10.966;2023-03-21T07:01:09;7.70;99.90
29501;DHT22;16450;50.288;10.966;2023-03-21T07:04:11;7.70;99.90
29501;DHT22;16450;50.288;10.966;2023-03-21T07:07:13;7.70;99.90
29501;DHT22;16450;50.288;10.966;2023-03-21T07:10:16;7.80;99.90
29501;DHT22;16450;50.288;10.966;2023-03-21T07:13:18;7.80;99.90
29501;DHT22;16450;50.288;10.966;2023-03-21T07:16:20;7.90;99.90
29501;DHT22;16450;50.288;10.966;2023-03-21T07:19:22;8.00;99.90
29501;DHT22;16450;50.288;10.966;2023-03-21T07:22:24;8.10;99.90
29501;DHT22;16450;50.288;10.966;2023-03-21T07:25:26;8.20;99.90
29501;DHT22;16450;50.288;10.966;2023-03-21T07:28:28;8.20;99.90
29501;DHT22;16450;50.288;10.966;2023-03-21T07:31:31;8.30;99.90
29501;DHT22;16450;50.288;10.966;2023-03-21T07:34:33;8.40;99.90
29501;DHT22;16450;50.288;10.966;2023-03-21T07:37:35;8.40;99.90
29501;DHT22;16450;50.288;10.966;2023-03-21T07:40:38;8.50;99.90
29501;DHT22;16450;50.288;10.966;2023-03-21T07:43:40;8.50;99.90
29501;DHT22;16450;50.288;10.966;2023-03-21T07:46:42;8.60;99.90
29501;DHT22;16450;50.288;10.966;2023-03-21T07:49:44;8.60;99.90
29501;DHT22;16450;50.288;10.966;2023-03-21T07:52:46;8.70;99.90
29501;DHT22;16450;50.288;10.966;2023-03-21T07:55:50;8.80;99.90
29501;DHT22;16450;50.288;10.966;2023-03-21T07:58:52;8.80;99.90
29501;DHT22;16450;50.288;10.966;2023-03-21T08:01:53;9.10;99.90
29501;DHT22;16450;50.288;10.966;2023-03-21T08:04:55;9.00;99.90
29501;DHT22;16450;50.288;10.966;2023-03-21T08:07:57;9.10;99.90
29501;DHT22;16450;50.288;10.966;2023-03-21T08:10:59;9.30;99.90
29501;DHT22;16450;50.288;10.966;2023-03-21T08:14:01;9.40;99.90
29501;DHT22;16450;50.288;10.966;2023-03-21T08:17:04;9.50;99.90
29501;DHT22;16450;50.288;10.966;2023-03-21T08:20:07;9.70;99.90
29501;DHT22;16450;50.288;10.966;2023-03-21T08:23:10;9.80;99.90
29501;DHT22;16450;50.288;10.966;2023-03-21T08:26:12;9.90;99.90
29501;DHT22;16450;50.288;10.966;2023-03-21T08:29:18;10.00;99.90
29501;DHT22;16450;50.288;10.966;2023-03-21T08:32:22;10.10;99.90
29501;DHT22;16450;50.288;10.966;2023-03-21T08:35:30;10.20;99.90
29501;DHT22;16450;50.288;10.966;2023-03-21T08:38:32;10.30;99.90
29501;DHT22;16450;50.288;10.966;2023-03-21T08:41:36;10.40;99.90
29501;DHT22;16450;50.288;10.966;2023-03-21T08:44:38;10.50;99.90
29501;DHT22;16450;50.288;10.966;2023-03-21T08:47:40;10.60;99.90
29501;DHT22;16450;50.288;10.966;2023-03-21T08:50:42;10.70;99.90
29501;DHT22;16450;50.288;10.966;2023-03-21T08:53:44;10.70;99.90
29501;DHT22;16450;50.288;10.966;2023-03-21T08:56:46;10.90;99.90
29501;DHT22;16450;50.288;10.966;2023-03-21T08:59:48;10.90;99.90
29501;DHT22;16450;50.288;10.966;2023-03-21T09:02:50;11.00;99.90
29501;DHT22;16450;50.288;10.966;2023-03-21T09:05:53;11.10;99.90
29501;DHT22;16450;50.288;10.966;2023-03-21T09:08:55;11.20;99.90
29501;DHT22;16450;50.288;10.966;2023-03-21T09:11:57;11.30;99.90
29501;DHT22;16450;50.288;10.966;2023-03-21T09:14:59;11.30;99.90
29501;DHT22;16450;50.288;10.966;2023-03-21T09:18:03;11.40;99.90
29501;DHT22;16450;50.288;10.966;2023-03-21T09:21:16;11.40;99.90
29501;DHT22;16450;50.288;10.966;2023-03-21T09:24:19;11.60;99.90
29501;DHT22;16450;50.288;10.966;2023-03-21T09:27:21;11.60;99.90
29501;DHT22;16450;50.288;10.966;2023-03-21T09:30:28;11.80;99.90
29501;DHT22;16450;50.288;10.966;2023-03-21T09:33:31;12.00;99.90
29501;DHT22;16450;50.288;10.966;2023-03-21T09:36:33;12.20;99.90
29501;DHT22;16450;50.288;10.966;2023-03-21T09:39:36;12.40;99.90
29501;DHT22;16450;50.288;10.966;2023-03-21T09:47:03;12.90;99.90
29501;DHT22;16450;50.288;10.966;2023-03-21T09:50:15;13.20;99.90
29501;DHT22;16450;50.288;10.966;2023-03-21T09:53:47;13.40;99.90
29501;DHT22;16450;50.288;10.966;2023-03-21T09:56:53;14.00;99.90
29501;DHT22;16450;50.288;10.966;2023-03-21T09:59:59;14.20;99.90
29501;DHT22;16450;50.288;10.966;2023-03-21T10:03:19;14.40;99.90
29501;DHT22;16450;50.288;10.966;2023-03-21T10:06:24;14.60;99.90
29501;DHT22;16450;50.288;10.966;2023-03-21T10:09:31;14.80;99.90
29501;DHT22;16450;50.288;10.966;2023-03-21T10:12:34;14.90;99.90
29501;DHT22;16450;50.288;10.966;2023-03-21T10:15:35;15.00;99.90
29501;DHT22;16450;50.288;10.966;2023-03-21T10:18:40;15.20;99.90
29501;DHT22;16450;50.288;10.966;2023-03-21T10:21:46;15.20;99.90
29501;DHT22;16450;50.288;10.966;2023-03-21T10:25:06;15.30;99.90
29501;DHT22;16450;50.288;10.966;2023-03-21T10:28:14;15.40;99.90
29501;DHT22;16450;50.288;10.966;2023-03-21T10:31:20;15.40;99.90
29501;DHT22;16450;50.288;10.966;2023-03-21T10:34:35;15.40;99.90
29501;DHT22;16450;50.288;10.966;2023-03-21T10:37:38;15.40;99.90
29501;DHT22;16450;50.288;10.966;2023-03-21T10:40:40;15.30;99.90
29501;DHT22;16450;50.288;10.966;2023-03-21T10:43:42;15.40;99.90
29501;DHT22;16450;50.288;10.966;2023-03-21T10:46:54;15.40;99.90
29501;DHT22;16450;50.288;10.966;2023-03-21T10:50:11;15.30;99.90
29501;DHT22;16450;50.288;10.966;2023-03-21T10:53:31;15.20;99.60
29501;DHT22;16450;50.288;10.966;2023-03-21T10:56:37;15.00;99.40
29501;DHT22;16450;50.288;10.966;2023-03-21T10:59:53;14.90;99.90
29501;DHT22;16450;50.288;10.966;2023-03-21T11:02:56;14.80;99.90
29501;DHT22;16450;50.288;10.966;2023-03-21T11:06:49;14.80;99.90
29501;DHT22;16450;50.288;10.966;2023-03-21T11:09:57;14.70;99.90
29501;DHT22;16450;50.288;10.966;2023-03-21T11:13:18;14.70;99.70
29501;DHT22;16450;50.288;10.966;2023-03-21T11:16:37;14.70;99.90
29501;DHT22;16450;50.288;10.966;2023-03-21T11:19:50;14.70;99.90
29501;DHT22;16450;50.288;10.966;2023-03-21T11:22:54;14.60;99.90
29501;DHT22;16450;50.288;10.966;2023-03-21T11:25:59;14.60;99.90
29501;DHT22;16450;50.288;10.966;2023-03-21T11:29:27;14.60;99.90
29501;DHT22;16450;50.288;10.966;2023-03-21T11:32:33;14.50;99.90
29501;DHT22;16450;50.288;10.966;2023-03-21T11:35:38;14.60;99.90
29501;DHT22;16450;50.288;10.966;2023-03-21T11:38:40;14.60;99.90
29501;DHT22;16450;50.288;10.966;2023-03-21T11:41:47;14.70;99.90
29501;DHT22;16450;50.288;10.966;2023-03-21T11:45:01;14.80;99.90
29501;DHT22;16450;50.288;10.966;2023-03-21T11:48:12;14.80;99.90
29501;DHT22;16450;50.288;10.966;2023-03-21T11:51:40;14.80;99.90
29501;DHT22;16450;50.288;10.966;2023-03-21T12:04:51;15.00;99.90
29501;DHT22;16450;50.288;10.966;2023-03-21T12:11:27;15.10;99.90
29501;DHT22;16450;50.288;10.966;2023-03-21T12:15:00;15.20;99.90
29501;DHT22;16450;50.288;10.966;2023-03-21T12:18:32;15.20;99.90
29501;DHT22;16450;50.288;10.966;2023-03-21T12:21:56;15.30;99.90
29501;DHT22;16450;50.288;10.966;2023-03-21T12:25:24;15.40;99.90
29501;DHT22;16450;50.288;10.966;2023-03-21T12:28:44;15.40;99.90
29501;DHT22;16450;50.288;10.966;2023-03-21T12:32:06;15.50;99.90
29501;DHT22;16450;50.288;10.966;2023-03-21T12:35:26;15.60;99.90
29501;DHT22;16450;50.288;10.966;2023-03-21T12:44:55;15.80;99.90
29501;DHT22;16450;50.288;10.966;2023-03-21T12:51:33;15.80;99.30
29501;DHT22;16450;50.288;10.966;2023-03-21T12:55:01;15.90;99.90
29501;DHT22;16450;50.288;10.966;2023-03-21T12:58:07;15.80;99.90
29501;DHT22;16450;50.288;10.966;2023-03-21T13:01:11;15.90;99.90
29501;DHT22;16450;50.288;10.966;2023-03-21T13:07:28;15.90;99.90
29501;DHT22;16450;50.288;10.966;2023-03-21T13:10:34;15.90;99.90
29501;DHT22;16450;50.288;10.966;2023-03-21T13:17:33;15.90;99.90
29501;DHT22;16450;50.288;10.966;2023-03-21T13:20:46;16.00;99.80
29501;DHT22;16450;50.288;10.966;2023-03-21T13:30:30;16.10;99.90
29501;DHT22;16450;50.288;10.966;2023-03-21T13:33:33;16.20;99.90
29501;DHT22;16450;50.288;10.966;2023-03-21T13:36:35;16.20;99.90
29501;DHT22;16450;50.288;10.966;2023-03-21T13:39:44;16.30;99.90
29501;DHT22;16450;50.288;10.966;2023-03-21T13:42:51;16.30;99.90
29501;DHT22;16450;50.288;10.966;2023-03-21T13:45:54;16.30;99.90
29501;DHT22;16450;50.288;10.966;2023-03-21T13:55:18;16.30;99.90
29501;DHT22;16450;50.288;10.966;2023-03-21T13:58:37;16.10;99.80
29501;DHT22;16450;50.288;10.966;2023-03-21T14:01:40;16.30;98.90
29501;DHT22;16450;50.288;10.966;2023-03-21T14:04:43;16.30;99.90
29501;DHT22;16450;50.288;10.966;2023-03-21T14:08:14;16.30;99.90
29501;DHT22;16450;50.288;10.966;2023-03-21T14:11:30;16.30;99.60
29501;DHT22;16450;50.288;10.966;2023-03-21T14:14:37;16.30;99.90
29501;DHT22;16450;50.288;10.966;2023-03-21T14:18:00;16.40;99.90
29501;DHT22;16450;50.288;10.966;2023-03-21T14:21:28;16.30;99.20
29501;DHT22;16450;50.288;10.966;2023-03-21T14:24:31;16.30;99.90
29501;DHT22;16450;50.288;10.966;2023-03-21T14:27:34;16.30;99.90
29501;DHT22;16450;50.288;10.966;2023-03-21T14:30:39;16.30;99.90
29501;DHT22;16450;50.288;10.966;2023-03-21T14:33:47;16.30;99.90
29501;DHT22;16450;50.288;10.966;2023-03-21T14:36:52;16.30;99.90
29501;DHT22;16450;50.288;10.966;2023-03-21T14:40:01;16.30;99.90
29501;DHT22;16450;50.288;10.966;2023-03-21T14:43:10;16.30;99.90
29501;DHT22;16450;50.288;10.966;2023-03-21T14:46:12;16.20;99.90
29501;DHT22;16450;50.288;10.966;2023-03-21T14:49:25;16.20;99.90
29501;DHT22;16450;50.288;10.966;2023-03-21T14:52:32;16.20;98.70
29501;DHT22;16450;50.288;10.966;2023-03-21T14:55:41;16.10;99.90
29501;DHT22;16450;50.288;10.966;2023-03-21T14:58:44;16.10;99.00
29501;DHT22;16450;50.288;10.966;2023-03-21T15:01:48;16.10;99.90
29501;DHT22;16450;50.288;10.966;2023-03-21T15:04:54;16.00;99.90
29501;DHT22;16450;50.288;10.966;2023-03-21T15:11:13;15.90;99.70
29501;DHT22;16450;50.288;10.966;2023-03-21T15:14:18;15.90;99.90
29501;DHT22;16450;50.288;10.966;2023-03-21T15:17:21;15.90;99.90
29501;DHT22;16450;50.288;10.966;2023-03-21T15:20:27;15.80;99.90
29501;DHT22;16450;50.288;10.966;2023-03-21T15:23:32;15.90;99.90
29501;DHT22;16450;50.288;10.966;2023-03-21T15:26:36;15.70;99.90
29501;DHT22;16450;50.288;10.966;2023-03-21T15:29:38;15.70;99.90
29501;DHT22;16450;50.288;10.966;2023-03-21T15:32:42;15.60;99.90
29501;DHT22;16450;50.288;10.966;2023-03-21T15:36:07;15.60;99.90
29501;DHT22;16450;50.288;10.966;2023-03-21T15:39:14;15.60;97.70
29501;DHT22;16450;50.288;10.966;2023-03-21T15:42:32;15.50;99.50
29501;DHT22;16450;50.288;10.966;2023-03-21T15:45:48;15.40;97.70
29501;DHT22;16450;50.288;10.966;2023-03-21T15:49:06;15.30;98.50
29501;DHT22;16450;50.288;10.966;2023-03-21T15:52:14;15.20;98.20
29501;DHT22;16450;50.288;10.966;2023-03-21T15:55:21;15.20;99.90
29501;DHT22;16450;50.288;10.966;2023-03-21T15:58:33;15.20;99.90
29501;DHT22;16450;50.288;10.966;2023-03-21T16:01:35;15.10;99.90
29501;DHT22;16450;50.288;10.966;2023-03-21T16:08:15;15.10;98.30
29501;DHT22;16450;50.288;10.966;2023-03-21T16:11:24;15.10;99.80
29501;DHT22;16450;50.288;10.966;2023-03-21T16:14:26;15.00;99.50
29501;DHT22;16450;50.288;10.966;2023-03-21T16:17:33;15.00;99.90
29501;DHT22;16450;50.288;10.966;2023-03-21T16:20:41;14.90;99.30
29501;DHT22;16450;50.288;10.966;2023-03-21T16:23:44;14.80;99.90
29501;DHT22;16450;50.288;10.966;2023-03-21T16:26:47;14.90;99.90
29501;DHT22;16450;50.288;10.966;2023-03-21T16:29:52;14.80;99.90
29501;DHT22;16450;50.288;10.966;2023-03-21T16:32:55;14.70;99.90
29501;DHT22;16450;50.288;10.966;2023-03-21T16:35:57;14.60;99.90
29501;DHT22;16450;50.288;10.966;2023-03-21T16:42:19;14.50;98.20
29501;DHT22;16450;50.288;10.966;2023-03-21T16:45:21;14.40;99.90
29501;DHT22;16450;50.288;10.966;2023-03-21T16:48:23;14.30;99.90
29501;DHT22;16450;50.288;10.966;2023-03-21T16:51:31;14.20;99.90
29501;DHT22;16450;50.288;10.966;2023-03-21T16:54:33;14.20;99.50
29501;DHT22;16450;50.288;10.966;2023-03-21T16:57:35;14.10;99.90
29501;DHT22;16450;50.288;10.966;2023-03-21T17:00:36;14.00;99.90
29501;DHT22;16450;50.288;10.966;2023-03-21T17:03:40;14.00;99.90
29501;DHT22;16450;50.288;10.966;2023-03-21T17:06:49;13.90;99.90
29501;DHT22;16450;50.288;10.966;2023-03-21T17:09:51;13.80;99.70
29501;DHT22;16450;50.288;10.966;2023-03-21T17:12:53;13.70;99.90
29501;DHT22;16450;50.288;10.966;2023-03-21T17:15:55;13.50;99.90
29501;DHT22;16450;50.288;10.966;2023-03-21T17:18:57;13.40;99.80
29501;DHT22;16450;50.288;10.966;2023-03-21T17:22:00;13.30;99.80
29501;DHT22;16450;50.288;10.966;2023-03-21T17:25:02;13.10;99.80
29501;DHT22;16450;50.288;10.966;2023-03-21T17:28:05;13.00;99.90
29501;DHT22;16450;50.288;10.966;2023-03-21T17:31:14;12.90;99.90
29501;DHT22;16450;50.288;10.966;2023-03-21T17:34:17;12.70;99.50
29501;DHT22;16450;50.288;10.966;2023-03-21T17:37:19;12.60;99.90
29501;DHT22;16450;50.288;10.966;2023-03-21T17:40:24;12.50;99.90
29501;DHT22;16450;50.288;10.966;2023-03-21T17:43:25;12.50;99.90
29501;DHT22;16450;50.288;10.966;2023-03-21T17:46:28;12.40;99.90
29501;DHT22;16450;50.288;10.966;2023-03-21T17:49:30;12.40;99.90
29501;DHT22;16450;50.288;10.966;2023-03-21T17:52:32;12.30;99.90
29501;DHT22;16450;50.288;10.966;2023-03-21T17:55:35;12.20;99.90
29501;DHT22;16450;50.288;10.966;2023-03-21T17:58:37;12.20;99.90
29501;DHT22;16450;50.288;10.966;2023-03-21T18:01:39;12.10;99.90
29501;DHT22;16450;50.288;10.966;2023-03-21T18:04:42;12.00;99.90
29501;DHT22;16450;50.288;10.966;2023-03-21T18:07:44;12.00;99.90
29501;DHT22;16450;50.288;10.966;2023-03-21T18:11:07;12.00;99.90
29501;DHT22;16450;50.288;10.966;2023-03-21T18:14:09;11.90;99.90
29501;DHT22;16450;50.288;10.966;2023-03-21T18:17:19;11.90;99.90
29501;DHT22;16450;50.288;10.966;2023-03-21T18:20:24;11.80;99.90
29501;DHT22;16450;50.288;10.966;2023-03-21T18:23:47;11.70;99.90
29501;DHT22;16450;50.288;10.966;2023-03-21T18:26:50;11.70;99.90
29501;DHT22;16450;50.288;10.966;2023-03-21T18:29:52;11.80;99.90
29501;DHT22;16450;50.288;10.966;2023-03-21T18:33:15;11.70;99.90
29501;DHT22;16450;50.288;10.966;2023-03-21T18:36:19;11.70;99.90
29501;DHT22;16450;50.288;10.966;2023-03-21T18:39:26;11.60;99.90
29501;DHT22;16450;50.288;10.966;2023-03-21T18:42:28;11.60;99.90
29501;DHT22;16450;50.288;10.966;2023-03-21T18:45:32;11.60;99.90
29501;DHT22;16450;50.288;10.966;2023-03-21T18:48:34;11.60;99.90
29501;DHT22;16450;50.288;10.966;2023-03-21T18:51:36;11.50;99.90
29501;DHT22;16450;50.288;10.966;2023-03-21T18:54:38;11.50;99.90
29501;DHT22;16450;50.288;10.966;2023-03-21T18:57:41;11.50;99.90
29501;DHT22;16450;50.288;10.966;2023-03-21T19:00:43;11.50;99.90
29501;DHT22;16450;50.288;10.966;2023-03-21T19:03:45;11.50;99.90
29501;DHT22;16450;50.288;10.966;2023-03-21T19:07:07;11.50;99.90
29501;DHT22;16450;50.288;10.966;2023-03-21T19:10:09;11.40;99.90
29501;DHT22;16450;50.288;10.966;2023-03-21T19:13:20;11.40;99.90
29501;DHT22;16450;50.288;10.966;2023-03-21T19:16:22;11.40;99.90
29501;DHT22;16450;50.288;10.966;2023-03-21T19:19:30;11.30;99.90
29501;DHT22;16450;50.288;10.966;2023-03-21T19:22:32;11.30;99.90
29501;DHT22;16450;50.288;10.966;2023-03-21T19:25:34;11.30;99.90
29501;DHT22;16450;50.288;10.966;2023-03-21T19:28:36;11.30;99.90
29501;DHT22;16450;50.288;10.966;2023-03-21T19:31:37;11.30;99.90
29501;DHT22;16450;50.288;10.966;2023-03-21T19:34:39;11.20;99.90
29501;DHT22;16450;50.288;10.966;2023-03-21T19:37:41;11.20;99.90
29501;DHT22;16450;50.288;10.966;2023-03-21T19:40:43;11.20;99.90
29501;DHT22;16450;50.288;10.966;2023-03-21T19:43:46;11.10;99.90
29501;DHT22;16450;50.288;10.966;2023-03-21T19:46:55;11.10;99.90
29501;DHT22;16450;50.288;10.966;2023-03-21T19:49:57;11.20;99.90
29501;DHT22;16450;50.288;10.966;2023-03-21T19:53:19;11.10;99.90
29501;DHT22;16450;50.288;10.966;2023-03-21T19:56:21;11.10;99.90
29501;DHT22;16450;50.288;10.966;2023-03-21T19:59:27;11.10;99.90
29501;DHT22;16450;50.288;10.966;2023-03-21T20:02:30;11.10;99.90
29501;DHT22;16450;50.288;10.966;2023-03-21T20:05:37;11.10;99.90
29501;DHT22;16450;50.288;10.966;2023-03-21T20:08:39;11.10;99.90
29501;DHT22;16450;50.288;10.966;2023-03-21T20:12:02;11.10;99.90
29501;DHT22;16450;50.288;10.966;2023-03-21T20:15:06;11.10;99.90
29501;DHT22;16450;50.288;10.966;2023-03-21T20:18:18;11.10;99.90
29501;DHT22;16450;50.288;10.966;2023-03-21T20:21:21;11.10;99.90
29501;DHT22;16450;50.288;10.966;2023-03-21T20:24:26;11.10;99.90
29501;DHT22;16450;50.288;10.966;2023-03-21T20:27:28;11.10;99.90
29501;DHT22;16450;50.288;10.966;2023-03-21T20:30:31;11.00;99.90
29501;DHT22;16450;50.288;10.966;2023-03-21T20:33:33;11.10;99.90
29501;DHT22;16450;50.288;10.966;2023-03-21T20:36:35;11.10;99.90
29501;DHT22;16450;50.288;10.966;2023-03-21T20:39:41;11.10;99.90
29501;DHT22;16450;50.288;10.966;2023-03-21T20:42:43;11.10;99.90
29501;DHT22;16450;50.288;10.966;2023-03-21T20:45:49;11.10;99.90
29501;DHT22;16450;50.288;10.966;2023-03-21T20:48:51;11.10;99.90
29501;DHT22;16450;50.288;10.966;2023-03-21T20:51:52;11.00;99.90
29501;DHT22;16450;50.288;10.966;2023-03-21T20:55:15;11.00;99.90
29501;DHT22;16450;50.288;10.966;2023-03-21T20:58:17;10.90;99.90